sensor_id;sensor_type;location;lat;lon;timestamp;temperature;humidity
67192;HTU21D;54120;53.504;49.426;2023-08-07T00:02:08;21.28;65.69
67192;HTU21D;54120;53.504;49.426;2023-08-07T00:04:35;21.23;65.84
67192;HTU21D;54120;53.504;49.426;2023-08-07T00:07:01;21.27;65.82
67192;HTU21D;54120;53.504;49.426;2023-08-07T00:09:27;21.29;65.80
67192;HTU21D;54120;53.504;49.426;2023-08-07T00:11:53;21.22;65.95
67192;HTU21D;54120;53.504;49.426;2023-08-07T00:14:19;21.24;65.78
67192;HTU21D;54120;53.504;49.426;2023-08-07T00:16:45;21.25;65.92
67192;HTU21D;54120;53.504;49.426;2023-08-07T00:19:11;21.22;66.06
67192;HTU21D;54120;53.504;49.426;2023-08-07T00:21:37;21.23;66.13
67192;HTU21D;54120;53.504;49.426;2023-08-07T00:24:03;21.22;66.14
67192;HTU21D;54120;53.504;49.426;2023-08-07T00:26:29;21.20;66.33
67192;HTU21D;54120;53.504;49.426;2023-08-07T00:28:57;21.17;66.53
67192;HTU21D;54120;53.504;49.426;2023-08-07T00:31:23;21.13;66.46
67192;HTU21D;54120;53.504;49.426;2023-08-07T00:33:50;21.09;66.79
67192;HTU21D;54120;53.504;49.426;2023-08-07T00:36:20;21.08;66.71
67192;HTU21D;54120;53.504;49.426;2023-08-07T00:38:46;21.02;66.72
67192;HTU21D;54120;53.504;49.426;2023-08-07T00:41:12;20.99;66.89
67192;HTU21D;54120;53.504;49.426;2023-08-07T00:43:38;20.94;67.12
67192;HTU21D;54120;53.504;49.426;2023-08-07T00:46:04;20.85;67.17
67192;HTU21D;54120;53.504;49.426;2023-08-07T00:48:31;20.72;67.55
67192;HTU21D;54120;53.504;49.426;2023-08-07T00:50:57;20.64;67.78
67192;HTU21D;54120;53.504;49.426;2023-08-07T00:53:23;20.62;67.80
67192;HTU21D;54120;53.504;49.426;2023-08-07T00:55:50;20.58;67.89
67192;HTU21D;54120;53.504;49.426;2023-08-07T00:58:17;20.51;68.13
67192;HTU21D;54120;53.504;49.426;2023-08-07T01:00:43;20.46;68.42
67192;HTU21D;54120;53.504;49.426;2023-08-07T01:03:11;20.40;68.62
67192;HTU21D;54120;53.504;49.426;2023-08-07T01:05:40;20.42;68.58
67192;HTU21D;54120;53.504;49.426;2023-08-07T01:08:06;20.43;68.40
67192;HTU21D;54120;53.504;49.426;2023-08-07T01:13:09;20.35;68.84
67192;HTU21D;54120;53.504;49.426;2023-08-07T01:15:38;20.39;68.68
67192;HTU21D;54120;53.504;49.426;2023-08-07T01:18:07;20.35;68.74
67192;HTU21D;54120;53.504;49.426;2023-08-07T01:20:33;20.29;69.00
67192;HTU21D;54120;53.504;49.426;2023-08-07T01:23:00;20.29;69.13
67192;HTU21D;54120;53.504;49.426;2023-08-07T01:25:26;20.22;69.24
67192;HTU21D;54120;53.504;49.426;2023-08-07T01:27:58;20.26;69.25
67192;HTU21D;54120;53.504;49.426;2023-08-07T01:30:32;20.32;68.74
67192;HTU21D;54120;53.504;49.426;2023-08-07T01:33:12;20.30;69.00
67192;HTU21D;54120;53.504;49.426;2023-08-07T01:35:43;20.27;69.09
67192;HTU21D;54120;53.504;49.426;2023-08-07T01:38:11;20.30;68.88
67192;HTU21D;54120;53.504;49.426;2023-08-07T01:40:39;20.36;69.01
67192;HTU21D;54120;53.504;49.426;2023-08-07T01:43:06;20.53;68.48
67192;HTU21D;54120;53.504;49.426;2023-08-07T01:45:32;20.88;67.13
67192;HTU21D;54120;53.504;49.426;2023-08-07T01:47:59;21.55;64.76
67192;HTU21D;54120;53.504;49.426;2023-08-07T01:50:25;22.48;61.57
67192;HTU21D;54120;53.504;49.426;2023-08-07T01:52:51;22.77;60.59
67192;HTU21D;54120;53.504;49.426;2023-08-07T01:55:18;22.52;61.33
67192;HTU21D;54120;53.504;49.426;2023-08-07T01:57:44;21.82;63.53
67192;HTU21D;54120;53.504;49.426;2023-08-07T02:00:10;22.46;61.88
67192;HTU21D;54120;53.504;49.426;2023-08-07T02:02:37;24.50;54.59
67192;HTU21D;54120;53.504;49.426;2023-08-07T02:05:04;25.58;51.39
67192;HTU21D;54120;53.504;49.426;2023-08-07T02:07:31;26.83;47.69
67192;HTU21D;54120;53.504;49.426;2023-08-07T02:09:57;27.73;45.06
67192;HTU21D;54120;53.504;49.426;2023-08-07T02:12:24;28.13;44.22
67192;HTU21D;54120;53.504;49.426;2023-08-07T02:14:51;28.75;42.68
67192;HTU21D;54120;53.504;49.426;2023-08-07T02:17:17;28.93;41.87
67192;HTU21D;54120;53.504;49.426;2023-08-07T02:19:43;28.02;44.13
67192;HTU21D;54120;53.504;49.426;2023-08-07T02:22:09;28.03;43.96
67192;HTU21D;54120;53.504;49.426;2023-08-07T02:24:35;28.52;42.90
67192;HTU21D;54120;53.504;49.426;2023-08-07T02:27:01;29.13;41.44
67192;HTU21D;54120;53.504;49.426;2023-08-07T02:29:27;29.17;41.18
67192;HTU21D;54120;53.504;49.426;2023-08-07T02:31:53;29.00;41.56
67192;HTU21D;54120;53.504;49.426;2023-08-07T02:34:19;28.90;41.74
67192;HTU21D;54120;53.504;49.426;2023-08-07T02:36:45;29.77;39.90
67192;HTU21D;54120;53.504;49.426;2023-08-07T02:39:13;30.40;38.60
67192;HTU21D;54120;53.504;49.426;2023-08-07T02:41:40;31.60;35.49
67192;HTU21D;54120;53.504;49.426;2023-08-07T02:44:06;31.22;36.69
67192;HTU21D;54120;53.504;49.426;2023-08-07T02:46:32;31.49;35.85
67192;HTU21D;54120;53.504;49.426;2023-08-07T02:48:58;30.82;37.69
67192;HTU21D;54120;53.504;49.426;2023-08-07T02:51:24;31.23;36.46
67192;HTU21D;54120;53.504;49.426;2023-08-07T02:53:50;30.52;38.24
67192;HTU21D;54120;53.504;49.426;2023-08-07T02:56:16;30.82;37.46
67192;HTU21D;54120;53.504;49.426;2023-08-07T02:58:42;30.99;37.22
67192;HTU21D;54120;53.504;49.426;2023-08-07T03:01:08;31.99;35.11
67192;HTU21D;54120;53.504;49.426;2023-08-07T03:03:34;32.44;33.63
67192;HTU21D;54120;53.504;49.426;2023-08-07T03:06:00;31.18;36.58
67192;HTU21D;54120;53.504;49.426;2023-08-07T03:08:26;30.56;37.69
67192;HTU21D;54120;53.504;49.426;2023-08-07T03:10:53;30.95;37.46
67192;HTU21D;54120;53.504;49.426;2023-08-07T03:13:22;32.77;33.45
67192;HTU21D;54120;53.504;49.426;2023-08-07T03:15:48;34.16;30.20
67192;HTU21D;54120;53.504;49.426;2023-08-07T03:18:16;33.21;32.43
67192;HTU21D;54120;53.504;49.426;2023-08-07T03:20:43;33.48;31.40
67192;HTU21D;54120;53.504;49.426;2023-08-07T03:23:10;33.88;30.64
67192;HTU21D;54120;53.504;49.426;2023-08-07T03:25:36;32.99;32.43
67192;HTU21D;54120;53.504;49.426;2023-08-07T03:28:03;32.48;33.25
67192;HTU21D;54120;53.504;49.426;2023-08-07T03:30:29;32.92;32.69
67192;HTU21D;54120;53.504;49.426;2023-08-07T03:32:55;33.97;30.19
67192;HTU21D;54120;53.504;49.426;2023-08-07T03:35:21;33.96;30.57
67192;HTU21D;54120;53.504;49.426;2023-08-07T03:37:47;34.35;29.67
67192;HTU21D;54120;53.504;49.426;2023-08-07T03:40:13;32.50;33.15
67192;HTU21D;54120;53.504;49.426;2023-08-07T03:42:39;33.62;30.99
67192;HTU21D;54120;53.504;49.426;2023-08-07T03:45:06;32.66;32.88
67192;HTU21D;54120;53.504;49.426;2023-08-07T03:47:32;33.77;30.91
67192;HTU21D;54120;53.504;49.426;2023-08-07T03:49:58;33.73;30.96
67192;HTU21D;54120;53.504;49.426;2023-08-07T03:52:24;35.24;28.91
67192;HTU21D;54120;53.504;49.426;2023-08-07T03:54:50;36.90;25.49
67192;HTU21D;54120;53.504;49.426;2023-08-07T03:57:16;37.20;25.10
67192;HTU21D;54120;53.504;49.426;2023-08-07T03:59:42;38.43;23.57
67192;HTU21D;54120;53.504;49.426;2023-08-07T04:02:08;38.65;23.21
67192;HTU21D;54120;53.504;49.426;2023-08-07T04:04:34;39.10;22.45
67192;HTU21D;54120;53.504;49.426;2023-08-07T04:07:00;38.99;22.26
67192;HTU21D;54120;53.504;49.426;2023-08-07T04:09:26;38.98;22.75
67192;HTU21D;54120;53.504;49.426;2023-08-07T04:11:52;39.43;21.94
67192;HTU21D;54120;53.504;49.426;2023-08-07T04:14:18;39.35;21.59
67192;HTU21D;54120;53.504;49.426;2023-08-07T04:16:44;39.19;22.50
67192;HTU21D;54120;53.504;49.426;2023-08-07T04:19:10;39.63;21.76
67192;HTU21D;54120;53.504;49.426;2023-08-07T04:21:36;40.25;20.80
67192;HTU21D;54120;53.504;49.426;2023-08-07T04:24:03;40.72;19.90
67192;HTU21D;54120;53.504;49.426;2023-08-07T04:26:36;41.45;18.82
67192;HTU21D;54120;53.504;49.426;2023-08-07T04:29:02;41.64;18.84
67192;HTU21D;54120;53.504;49.426;2023-08-07T04:31:29;41.72;18.38
67192;HTU21D;54120;53.504;49.426;2023-08-07T04:33:57;41.88;18.09
67192;HTU21D;54120;53.504;49.426;2023-08-07T04:36:24;42.03;17.57
67192;HTU21D;54120;53.504;49.426;2023-08-07T04:38:50;40.89;18.77
67192;HTU21D;54120;53.504;49.426;2023-08-07T04:41:16;39.72;20.44
67192;HTU21D;54120;53.504;49.426;2023-08-07T04:43:43;40.44;19.57
67192;HTU21D;54120;53.504;49.426;2023-08-07T04:46:10;39.68;19.99
67192;HTU21D;54120;53.504;49.426;2023-08-07T04:48:38;39.00;20.05
67192;HTU21D;54120;53.504;49.426;2023-08-07T04:51:04;36.55;23.29
67192;HTU21D;54120;53.504;49.426;2023-08-07T04:53:31;36.43;24.61
67192;HTU21D;54120;53.504;49.426;2023-08-07T04:55:59;35.90;24.26
67192;HTU21D;54120;53.504;49.426;2023-08-07T04:58:29;36.19;24.28
67192;HTU21D;54120;53.504;49.426;2023-08-07T05:00:56;36.21;23.23
67192;HTU21D;54120;53.504;49.426;2023-08-07T05:03:23;35.13;25.07
67192;HTU21D;54120;53.504;49.426;2023-08-07T05:05:50;35.12;25.80
67192;HTU21D;54120;53.504;49.426;2023-08-07T05:08:17;34.99;25.38
67192;HTU21D;54120;53.504;49.426;2023-08-07T05:10:43;34.84;25.48
67192;HTU21D;54120;53.504;49.426;2023-08-07T05:13:09;34.18;26.67
67192;HTU21D;54120;53.504;49.426;2023-08-07T05:15:35;34.55;25.95
67192;HTU21D;54120;53.504;49.426;2023-08-07T05:18:02;34.69;25.11
67192;HTU21D;54120;53.504;49.426;2023-08-07T05:20:28;33.36;27.36
67192;HTU21D;54120;53.504;49.426;2023-08-07T05:22:55;32.88;28.51
67192;HTU21D;54120;53.504;49.426;2023-08-07T05:25:21;34.52;26.33
67192;HTU21D;54120;53.504;49.426;2023-08-07T05:27:48;35.08;25.13
67192;HTU21D;54120;53.504;49.426;2023-08-07T05:30:14;34.27;25.86
67192;HTU21D;54120;53.504;49.426;2023-08-07T05:32:41;33.31;27.60
67192;HTU21D;54120;53.504;49.426;2023-08-07T05:35:08;32.97;28.58
67192;HTU21D;54120;53.504;49.426;2023-08-07T05:37:34;34.21;26.71
67192;HTU21D;54120;53.504;49.426;2023-08-07T05:40:02;35.37;24.84
67192;HTU21D;54120;53.504;49.426;2023-08-07T05:42:28;36.17;22.76
67192;HTU21D;54120;53.504;49.426;2023-08-07T05:44:54;35.13;25.26
67192;HTU21D;54120;53.504;49.426;2023-08-07T05:47:21;35.95;22.98
67192;HTU21D;54120;53.504;49.426;2023-08-07T05:49:47;35.58;23.87
67192;HTU21D;54120;53.504;49.426;2023-08-07T05:52:14;33.52;26.43
67192;HTU21D;54120;53.504;49.426;2023-08-07T05:54:40;32.43;28.48
67192;HTU21D;54120;53.504;49.426;2023-08-07T05:57:07;33.19;28.12
67192;HTU21D;54120;53.504;49.426;2023-08-07T05:59:33;34.47;25.13
67192;HTU21D;54120;53.504;49.426;2023-08-07T06:02:01;34.98;24.90
67192;HTU21D;54120;53.504;49.426;2023-08-07T06:04:29;35.38;24.08
67192;HTU21D;54120;53.504;49.426;2023-08-07T06:06:55;35.48;23.75
67192;HTU21D;54120;53.504;49.426;2023-08-07T06:09:21;34.62;25.17
67192;HTU21D;54120;53.504;49.426;2023-08-07T06:11:48;33.65;26.46
67192;HTU21D;54120;53.504;49.426;2023-08-07T06:14:15;31.71;29.86
67192;HTU21D;54120;53.504;49.426;2023-08-07T06:16:42;32.43;29.07
67192;HTU21D;54120;53.504;49.426;2023-08-07T06:19:09;34.09;25.75
67192;HTU21D;54120;53.504;49.426;2023-08-07T06:21:35;35.73;23.48
67192;HTU21D;54120;53.504;49.426;2023-08-07T06:24:02;35.57;23.91
67192;HTU21D;54120;53.504;49.426;2023-08-07T06:26:28;36.00;22.82
67192;HTU21D;54120;53.504;49.426;2023-08-07T06:28:55;37.21;21.40
67192;HTU21D;54120;53.504;49.426;2023-08-07T06:31:21;37.01;21.75
67192;HTU21D;54120;53.504;49.426;2023-08-07T06:33:49;36.36;21.95
67192;HTU21D;54120;53.504;49.426;2023-08-07T06:36:15;32.58;27.97
67192;HTU21D;54120;53.504;49.426;2023-08-07T06:38:42;32.76;27.50
67192;HTU21D;54120;53.504;49.426;2023-08-07T06:41:08;33.29;26.23
67192;HTU21D;54120;53.504;49.426;2023-08-07T06:43:35;34.23;24.98
67192;HTU21D;54120;53.504;49.426;2023-08-07T06:46:02;33.63;25.87
67192;HTU21D;54120;53.504;49.426;2023-08-07T06:48:28;33.17;26.50
67192;HTU21D;54120;53.504;49.426;2023-08-07T06:50:55;33.70;25.93
67192;HTU21D;54120;53.504;49.426;2023-08-07T06:53:21;34.71;24.66
67192;HTU21D;54120;53.504;49.426;2023-08-07T06:55:48;35.29;24.04
67192;HTU21D;54120;53.504;49.426;2023-08-07T06:58:14;35.24;23.74
67192;HTU21D;54120;53.504;49.426;2023-08-07T07:00:40;34.54;25.17
67192;HTU21D;54120;53.504;49.426;2023-08-07T07:03:07;35.19;23.89
67192;HTU21D;54120;53.504;49.426;2023-08-07T07:05:36;33.97;25.92
67192;HTU21D;54120;53.504;49.426;2023-08-07T07:08:02;34.20;26.01
67192;HTU21D;54120;53.504;49.426;2023-08-07T07:10:29;33.90;26.36
67192;HTU21D;54120;53.504;49.426;2023-08-07T07:12:59;34.49;25.13
67192;HTU21D;54120;53.504;49.426;2023-08-07T07:15:25;33.55;26.91
67192;HTU21D;54120;53.504;49.426;2023-08-07T07:17:52;33.00;26.62
67192;HTU21D;54120;53.504;49.426;2023-08-07T07:20:18;34.70;24.33
67192;HTU21D;54120;53.504;49.426;2023-08-07T07:22:44;35.15;23.66
67192;HTU21D;54120;53.504;49.426;2023-08-07T07:25:11;35.41;22.63
67192;HTU21D;54120;53.504;49.426;2023-08-07T07:27:39;35.44;22.98
67192;HTU21D;54120;53.504;49.426;2023-08-07T07:30:09;34.44;24.08
67192;HTU21D;54120;53.504;49.426;2023-08-07T07:32:35;33.38;26.23
67192;HTU21D;54120;53.504;49.426;2023-08-07T07:35:02;32.52;27.94
67192;HTU21D;54120;53.504;49.426;2023-08-07T07:37:30;32.37;28.00
67192;HTU21D;54120;53.504;49.426;2023-08-07T07:39:57;32.63;27.88
67192;HTU21D;54120;53.504;49.426;2023-08-07T07:42:24;32.97;27.54
67192;HTU21D;54120;53.504;49.426;2023-08-07T07:44:50;32.37;28.26
67192;HTU21D;54120;53.504;49.426;2023-08-07T07:47:17;32.41;28.36
67192;HTU21D;54120;53.504;49.426;2023-08-07T07:49:46;33.40;26.46
67192;HTU21D;54120;53.504;49.426;2023-08-07T07:52:15;32.58;27.72
67192;HTU21D;54120;53.504;49.426;2023-08-07T07:54:41;31.80;29.01
67192;HTU21D;54120;53.504;49.426;2023-08-07T07:57:08;30.12;32.41
67192;HTU21D;54120;53.504;49.426;2023-08-07T07:59:34;29.27;34.49
67192;HTU21D;54120;53.504;49.426;2023-08-07T08:02:00;28.95;35.18
67192;HTU21D;54120;53.504;49.426;2023-08-07T08:04:28;28.54;35.85
67192;HTU21D;54120;53.504;49.426;2023-08-07T08:06:54;28.38;35.92
67192;HTU21D;54120;53.504;49.426;2023-08-07T08:09:20;28.15;35.75
67192;HTU21D;54120;53.504;49.426;2023-08-07T08:11:46;27.82;36.92
67192;HTU21D;54120;53.504;49.426;2023-08-07T08:14:12;28.20;36.05
67192;HTU21D;54120;53.504;49.426;2023-08-07T08:16:39;28.02;36.61
67192;HTU21D;54120;53.504;49.426;2023-08-07T08:19:06;28.31;36.30
67192;HTU21D;54120;53.504;49.426;2023-08-07T08:21:35;28.56;35.35
67192;HTU21D;54120;53.504;49.426;2023-08-07T08:24:01;28.82;35.72
67192;HTU21D;54120;53.504;49.426;2023-08-07T08:26:27;29.29;35.69
67192;HTU21D;54120;53.504;49.426;2023-08-07T08:28:54;29.49;34.10
67192;HTU21D;54120;53.504;49.426;2023-08-07T08:31:20;29.09;34.95
67192;HTU21D;54120;53.504;49.426;2023-08-07T08:33:48;28.42;35.37
67192;HTU21D;54120;53.504;49.426;2023-08-07T08:36:14;28.19;35.47
67192;HTU21D;54120;53.504;49.426;2023-08-07T08:38:40;28.15;36.43
67192;HTU21D;54120;53.504;49.426;2023-08-07T08:41:07;28.67;36.19
67192;HTU21D;54120;53.504;49.426;2023-08-07T08:43:35;29.24;35.77
67192;HTU21D;54120;53.504;49.426;2023-08-07T08:46:04;30.01;33.74
67192;HTU21D;54120;53.504;49.426;2023-08-07T08:48:34;29.41;34.12
67192;HTU21D;54120;53.504;49.426;2023-08-07T08:51:02;29.32;34.69
67192;HTU21D;54120;53.504;49.426;2023-08-07T08:53:31;29.22;35.20
67192;HTU21D;54120;53.504;49.426;2023-08-07T08:55:59;29.51;34.20
67192;HTU21D;54120;53.504;49.426;2023-08-07T08:58:27;29.42;32.71
67192;HTU21D;54120;53.504;49.426;2023-08-07T09:00:54;29.28;34.01
67192;HTU21D;54120;53.504;49.426;2023-08-07T09:03:21;29.46;33.28
67192;HTU21D;54120;53.504;49.426;2023-08-07T09:05:48;29.08;34.02
67192;HTU21D;54120;53.504;49.426;2023-08-07T09:08:18;28.84;34.76
67192;HTU21D;54120;53.504;49.426;2023-08-07T09:10:47;28.68;34.52
67192;HTU21D;54120;53.504;49.426;2023-08-07T09:13:14;28.86;33.66
67192;HTU21D;54120;53.504;49.426;2023-08-07T09:15:43;29.13;33.23
67192;HTU21D;54120;53.504;49.426;2023-08-07T09:18:14;29.02;33.93
67192;HTU21D;54120;53.504;49.426;2023-08-07T09:20:41;29.11;34.15
67192;HTU21D;54120;53.504;49.426;2023-08-07T09:23:16;29.24;34.32
67192;HTU21D;54120;53.504;49.426;2023-08-07T09:25:59;29.52;34.41
67192;HTU21D;54120;53.504;49.426;2023-08-07T09:28:25;29.17;33.71
67192;HTU21D;54120;53.504;49.426;2023-08-07T09:30:56;29.13;34.00
67192;HTU21D;54120;53.504;49.426;2023-08-07T09:33:27;29.08;34.89
67192;HTU21D;54120;53.504;49.426;2023-08-07T09:36:01;29.11;34.03
67192;HTU21D;54120;53.504;49.426;2023-08-07T09:38:30;29.31;34.18
67192;HTU21D;54120;53.504;49.426;2023-08-07T09:41:01;29.00;33.56
67192;HTU21D;54120;53.504;49.426;2023-08-07T09:43:34;29.06;34.33
67192;HTU21D;54120;53.504;49.426;2023-08-07T09:46:03;29.59;34.08
67192;HTU21D;54120;53.504;49.426;2023-08-07T09:48:29;29.72;33.54
67192;HTU21D;54120;53.504;49.426;2023-08-07T09:51:01;29.50;33.77
67192;HTU21D;54120;53.504;49.426;2023-08-07T09:53:29;29.79;33.53
67192;HTU21D;54120;53.504;49.426;2023-08-07T09:55:56;29.92;32.77
67192;HTU21D;54120;53.504;49.426;2023-08-07T09:58:23;29.74;32.31
67192;HTU21D;54120;53.504;49.426;2023-08-07T10:00:50;29.50;32.82
67192;HTU21D;54120;53.504;49.426;2023-08-07T10:03:19;29.33;33.11
67192;HTU21D;54120;53.504;49.426;2023-08-07T10:05:46;29.18;33.60
67192;HTU21D;54120;53.504;49.426;2023-08-07T10:08:12;29.37;33.52
67192;HTU21D;54120;53.504;49.426;2023-08-07T10:10:39;29.46;32.94
67192;HTU21D;54120;53.504;49.426;2023-08-07T10:13:07;29.39;33.74
67192;HTU21D;54120;53.504;49.426;2023-08-07T10:15:34;29.18;34.02
67192;HTU21D;54120;53.504;49.426;2023-08-07T10:18:03;29.22;33.98
67192;HTU21D;54120;53.504;49.426;2023-08-07T10:20:31;29.24;33.99
67192;HTU21D;54120;53.504;49.426;2023-08-07T10:23:03;29.46;33.70
67192;HTU21D;54120;53.504;49.426;2023-08-07T10:25:31;29.70;32.77
67192;HTU21D;54120;53.504;49.426;2023-08-07T10:27:58;29.80;31.51
67192;HTU21D;54120;53.504;49.426;2023-08-07T10:30:26;29.33;31.59
67192;HTU21D;54120;53.504;49.426;2023-08-07T10:32:53;29.02;31.88
67192;HTU21D;54120;53.504;49.426;2023-08-07T10:35:30;29.34;32.45
67192;HTU21D;54120;53.504;49.426;2023-08-07T10:38:09;29.59;31.16
67192;HTU21D;54120;53.504;49.426;2023-08-07T10:43:37;29.45;31.21
67192;HTU21D;54120;53.504;49.426;2023-08-07T10:46:06;29.42;30.74
67192;HTU21D;54120;53.504;49.426;2023-08-07T10:48:41;29.58;31.45
67192;HTU21D;54120;53.504;49.426;2023-08-07T10:51:12;29.48;31.86
67192;HTU21D;54120;53.504;49.426;2023-08-07T10:53:42;29.29;32.13
67192;HTU21D;54120;53.504;49.426;2023-08-07T10:56:11;29.39;32.12
67192;HTU21D;54120;53.504;49.426;2023-08-07T10:58:41;29.63;31.61
67192;HTU21D;54120;53.504;49.426;2023-08-07T11:03:59;29.78;31.86
67192;HTU21D;54120;53.504;49.426;2023-08-07T11:06:32;29.75;32.01
67192;HTU21D;54120;53.504;49.426;2023-08-07T11:09:04;29.53;32.73
67192;HTU21D;54120;53.504;49.426;2023-08-07T11:11:44;29.74;31.93
67192;HTU21D;54120;53.504;49.426;2023-08-07T11:14:18;29.60;31.76
67192;HTU21D;54120;53.504;49.426;2023-08-07T11:16:46;29.63;32.06
67192;HTU21D;54120;53.504;49.426;2023-08-07T11:19:14;29.45;32.08
67192;HTU21D;54120;53.504;49.426;2023-08-07T11:21:42;29.59;31.98
67192;HTU21D;54120;53.504;49.426;2023-08-07T11:24:13;29.85;31.69
67192;HTU21D;54120;53.504;49.426;2023-08-07T11:26:43;29.93;30.02
67192;HTU21D;54120;53.504;49.426;2023-08-07T11:29:10;29.62;31.35
67192;HTU21D;54120;53.504;49.426;2023-08-07T11:31:36;29.32;31.61
67192;HTU21D;54120;53.504;49.426;2023-08-07T11:34:03;29.44;31.93
67192;HTU21D;54120;53.504;49.426;2023-08-07T11:36:30;29.39;31.38
67192;HTU21D;54120;53.504;49.426;2023-08-07T11:38:57;29.53;31.33
67192;HTU21D;54120;53.504;49.426;2023-08-07T11:41:24;29.66;32.17
67192;HTU21D;54120;53.504;49.426;2023-08-07T11:43:50;29.59;32.71
67192;HTU21D;54120;53.504;49.426;2023-08-07T11:46:17;29.79;32.27
67192;HTU21D;54120;53.504;49.426;2023-08-07T11:48:44;29.87;31.05
67192;HTU21D;54120;53.504;49.426;2023-08-07T11:51:11;29.53;31.16
67192;HTU21D;54120;53.504;49.426;2023-08-07T11:53:39;29.57;30.91
67192;HTU21D;54120;53.504;49.426;2023-08-07T11:56:10;29.49;31.67
67192;HTU21D;54120;53.504;49.426;2023-08-07T11:58:40;29.33;32.15
67192;HTU21D;54120;53.504;49.426;2023-08-07T12:01:12;29.44;32.28
67192;HTU21D;54120;53.504;49.426;2023-08-07T12:03:42;29.39;32.91
67192;HTU21D;54120;53.504;49.426;2023-08-07T12:06:09;29.72;32.76
67192;HTU21D;54120;53.504;49.426;2023-08-07T12:08:38;30.03;30.80
67192;HTU21D;54120;53.504;49.426;2023-08-07T12:11:08;29.77;31.46
67192;HTU21D;54120;53.504;49.426;2023-08-07T12:13:42;29.90;31.79
67192;HTU21D;54120;53.504;49.426;2023-08-07T12:16:09;30.13;30.59
67192;HTU21D;54120;53.504;49.426;2023-08-07T12:18:36;29.85;31.32
67192;HTU21D;54120;53.504;49.426;2023-08-07T12:21:06;29.94;30.78
67192;HTU21D;54120;53.504;49.426;2023-08-07T12:23:34;29.67;30.59
67192;HTU21D;54120;53.504;49.426;2023-08-07T12:26:01;29.86;29.87
67192;HTU21D;54120;53.504;49.426;2023-08-07T12:28:28;29.95;30.89
67192;HTU21D;54120;53.504;49.426;2023-08-07T12:30:54;30.15;31.36
67192;HTU21D;54120;53.504;49.426;2023-08-07T12:33:23;30.24;30.72
67192;HTU21D;54120;53.504;49.426;2023-08-07T12:35:50;30.18;30.74
67192;HTU21D;54120;53.504;49.426;2023-08-07T12:38:17;29.76;30.99
67192;HTU21D;54120;53.504;49.426;2023-08-07T12:40:45;29.68;30.98
67192;HTU21D;54120;53.504;49.426;2023-08-07T12:43:11;29.72;31.24
67192;HTU21D;54120;53.504;49.426;2023-08-07T12:45:38;29.89;30.29
67192;HTU21D;54120;53.504;49.426;2023-08-07T12:48:05;29.93;30.28
67192;HTU21D;54120;53.504;49.426;2023-08-07T12:50:31;29.93;29.58
67192;HTU21D;54120;53.504;49.426;2023-08-07T12:52:58;29.88;29.72
67192;HTU21D;54120;53.504;49.426;2023-08-07T12:55:25;29.60;29.93
67192;HTU21D;54120;53.504;49.426;2023-08-07T12:57:56;29.65;30.12
67192;HTU21D;54120;53.504;49.426;2023-08-07T13:00:23;29.73;29.60
67192;HTU21D;54120;53.504;49.426;2023-08-07T13:02:50;29.83;29.89
67192;HTU21D;54120;53.504;49.426;2023-08-07T13:05:19;30.10;29.39
67192;HTU21D;54120;53.504;49.426;2023-08-07T13:07:46;30.39;28.71
67192;HTU21D;54120;53.504;49.426;2023-08-07T13:10:16;30.41;29.06
67192;HTU21D;54120;53.504;49.426;2023-08-07T13:12:45;30.34;29.51
67192;HTU21D;54120;53.504;49.426;2023-08-07T13:15:15;30.25;29.22
67192;HTU21D;54120;53.504;49.426;2023-08-07T13:17:43;30.04;29.78
67192;HTU21D;54120;53.504;49.426;2023-08-07T13:20:13;29.80;29.82
67192;HTU21D;54120;53.504;49.426;2023-08-07T13:22:41;29.87;29.73
67192;HTU21D;54120;53.504;49.426;2023-08-07T13:25:12;29.88;30.24
67192;HTU21D;54120;53.504;49.426;2023-08-07T13:27:39;30.01;30.09
67192;HTU21D;54120;53.504;49.426;2023-08-07T13:30:07;30.16;30.00
67192;HTU21D;54120;53.504;49.426;2023-08-07T13:32:34;30.21;29.36
67192;HTU21D;54120;53.504;49.426;2023-08-07T13:35:01;30.04;29.75
67192;HTU21D;54120;53.504;49.426;2023-08-07T13:37:29;29.94;29.16
67192;HTU21D;54120;53.504;49.426;2023-08-07T13:39:56;29.95;28.79
67192;HTU21D;54120;53.504;49.426;2023-08-07T13:42:25;29.87;29.32
67192;HTU21D;54120;53.504;49.426;2023-08-07T13:44:54;29.96;29.18
67192;HTU21D;54120;53.504;49.426;2023-08-07T13:47:21;30.02;28.58
67192;HTU21D;54120;53.504;49.426;2023-08-07T13:49:48;30.06;28.39
67192;HTU21D;54120;53.504;49.426;2023-08-07T13:52:15;30.01;29.13
67192;HTU21D;54120;53.504;49.426;2023-08-07T13:54:43;29.92;29.93
67192;HTU21D;54120;53.504;49.426;2023-08-07T13:57:10;29.80;30.65
67192;HTU21D;54120;53.504;49.426;2023-08-07T13:59:36;29.79;30.58
67192;HTU21D;54120;53.504;49.426;2023-08-07T14:02:06;29.77;29.80
67192;HTU21D;54120;53.504;49.426;2023-08-07T14:04:32;29.82;30.30
67192;HTU21D;54120;53.504;49.426;2023-08-07T14:06:59;29.92;30.27
67192;HTU21D;54120;53.504;49.426;2023-08-07T14:09:26;29.97;29.82
67192;HTU21D;54120;53.504;49.426;2023-08-07T14:11:52;29.82;30.32
67192;HTU21D;54120;53.504;49.426;2023-08-07T14:14:19;29.72;30.93
67192;HTU21D;54120;53.504;49.426;2023-08-07T14:16:45;29.81;30.99
67192;HTU21D;54120;53.504;49.426;2023-08-07T14:19:12;29.94;30.87
67192;HTU21D;54120;53.504;49.426;2023-08-07T14:21:39;29.91;30.04
67192;HTU21D;54120;53.504;49.426;2023-08-07T14:24:06;29.75;30.02
67192;HTU21D;54120;53.504;49.426;2023-08-07T14:26:32;29.76;30.74
67192;HTU21D;54120;53.504;49.426;2023-08-07T14:28:58;29.71;29.66
67192;HTU21D;54120;53.504;49.426;2023-08-07T14:31:27;29.68;30.20
67192;HTU21D;54120;53.504;49.426;2023-08-07T14:33:54;29.66;30.59
67192;HTU21D;54120;53.504;49.426;2023-08-07T14:36:22;29.68;29.18
67192;HTU21D;54120;53.504;49.426;2023-08-07T14:38:49;29.62;29.57
67192;HTU21D;54120;53.504;49.426;2023-08-07T14:41:19;29.56;29.35
67192;HTU21D;54120;53.504;49.426;2023-08-07T14:43:45;29.63;29.42
67192;HTU21D;54120;53.504;49.426;2023-08-07T14:46:16;29.65;29.21
67192;HTU21D;54120;53.504;49.426;2023-08-07T14:48:44;29.59;29.31
67192;HTU21D;54120;53.504;49.426;2023-08-07T14:51:10;29.56;29.58
67192;HTU21D;54120;53.504;49.426;2023-08-07T14:53:40;29.52;29.83
67192;HTU21D;54120;53.504;49.426;2023-08-07T14:56:07;29.50;30.09
67192;HTU21D;54120;53.504;49.426;2023-08-07T14:58:34;29.48;29.92
67192;HTU21D;54120;53.504;49.426;2023-08-07T15:01:01;29.43;30.44
67192;HTU21D;54120;53.504;49.426;2023-08-07T15:03:28;29.33;30.42
67192;HTU21D;54120;53.504;49.426;2023-08-07T15:05:55;29.24;30.77
67192;HTU21D;54120;53.504;49.426;2023-08-07T15:08:23;29.21;30.77
67192;HTU21D;54120;53.504;49.426;2023-08-07T15:10:51;29.20;31.77
67192;HTU21D;54120;53.504;49.426;2023-08-07T15:13:19;29.17;31.76